createdAt,value
2023-03-23T00:01:20.128Z,13.3
2023-03-23T00:04:20.090Z,13.3
2023-03-23T00:07:20.075Z,13.2
2023-03-23T00:10:20.080Z,13.2
2023-03-23T00:13:20.066Z,13.2
2023-03-23T00:16:20.094Z,13.2
2023-03-23T00:19:20.080Z,13.2
2023-03-23T00:22:20.084Z,13.2
2023-03-23T00:25:20.117Z,13.2
2023-03-23T00:28:20.086Z,13.2
2023-03-23T00:31:20.085Z,13.2
2023-03-23T00:34:20.064Z,13.2
2023-03-23T00:37:20.078Z,13.2
2023-03-23T00:40:20.093Z,13.2
2023-03-23T00:43:20.072Z,13.2
2023-03-23T00:46:20.073Z,13.2
2023-03-23T00:49:20.070Z,13.2
2023-03-23T00:52:20.068Z,13.2
2023-03-23T00:55:20.081Z,13.2
2023-03-23T00:58:20.066Z,13.2
2023-03-23T01:01:20.061Z,13.2
2023-03-23T01:04:20.076Z,13.2
2023-03-23T01:07:20.068Z,13.2
2023-03-23T01:10:20.102Z,13.2
2023-03-23T01:13:20.058Z,13.2
2023-03-23T01:16:20.065Z,13.2
2023-03-23T01:19:20.060Z,13.2
2023-03-23T01:22:20.076Z,13.2
2023-03-23T01:25:20.068Z,13.2
2023-03-23T01:31:20.088Z,13.2
2023-03-23T01:34:20.064Z,13.2
2023-03-23T01:37:20.057Z,13.2
2023-03-23T01:40:20.060Z,13.1
2023-03-23T01:43:20.058Z,13.1
2023-03-23T01:46:20.054Z,13.1
2023-03-23T01:49:20.055Z,13.1
2023-03-23T01:52:20.059Z,13.1
2023-03-23T01:55:20.065Z,13.1
2023-03-23T01:58:20.089Z,13.1
2023-03-23T02:01:20.048Z,13.1
2023-03-23T02:04:20.069Z,13.1
2023-03-23T02:07:20.054Z,13.2
2023-03-23T02:10:20.069Z,13.2
2023-03-23T02:13:20.064Z,13.2
2023-03-23T02:16:20.152Z,13.2
2023-03-23T02:19:20.118Z,13.2
2023-03-23T02:22:20.098Z,13.2
2023-03-23T02:25:20.116Z,13.2
2023-03-23T02:28:20.103Z,13.2
2023-03-23T02:31:20.091Z,13.2
2023-03-23T02:34:20.106Z,13.2
2023-03-23T02:37:20.103Z,13.2
2023-03-23T02:40:20.118Z,13.2
2023-03-23T02:43:20.105Z,13.2
2023-03-23T02:46:20.109Z,13.2
2023-03-23T02:49:20.102Z,13.1
2023-03-23T02:52:20.102Z,13.1
2023-03-23T02:55:20.122Z,13.1
2023-03-23T02:58:20.110Z,13
2023-03-23T03:01:20.118Z,13
2023-03-23T03:04:20.112Z,13
2023-03-23T03:07:20.092Z,12.9
2023-03-23T03:10:20.115Z,12.9
2023-03-23T03:13:20.116Z,12.8
2023-03-23T03:19:20.103Z,12.7
2023-03-23T03:22:20.104Z,12.7
2023-03-23T03:25:20.109Z,12.7
2023-03-23T03:28:20.094Z,12.6
2023-03-23T03:31:20.085Z,12.6
2023-03-23T03:34:20.085Z,12.6
2023-03-23T03:37:20.086Z,12.5
2023-03-23T03:40:20.098Z,12.5
2023-03-23T03:43:20.093Z,12.5
2023-03-23T03:46:20.097Z,12.4
2023-03-23T03:49:20.102Z,12.4
2023-03-23T03:52:20.097Z,12.4
2023-03-23T03:55:20.110Z,12.4
2023-03-23T03:58:20.115Z,12.4
2023-03-23T04:01:20.082Z,12.3
2023-03-23T04:04:20.100Z,12.3
2023-03-23T04:07:20.078Z,12.3
2023-03-23T04:10:32.514Z,12.3
2023-03-23T04:13:20.093Z,12.3
2023-03-23T04:16:20.096Z,12.3
2023-03-23T04:19:20.081Z,12.3
2023-03-23T04:22:20.105Z,12.3
2023-03-23T04:28:20.103Z,12.3
2023-03-23T04:31:20.106Z,12.3
2023-03-23T04:34:20.084Z,12.3
2023-03-23T04:37:20.104Z,12.3
2023-03-23T04:40:20.089Z,12.3
2023-03-23T04:43:20.099Z,12.3
2023-03-23T04:46:20.091Z,12.3
2023-03-23T04:49:20.091Z,12.3
2023-03-23T04:52:20.092Z,12.3
2023-03-23T04:55:20.097Z,12.3
2023-03-23T04:58:20.082Z,12.2
2023-03-23T05:01:20.080Z,12.2
2023-03-23T05:04:20.083Z,12.2
2023-03-23T05:07:20.076Z,12.3
2023-03-23T05:10:24.671Z,12.3
2023-03-23T05:13:20.084Z,12.3
2023-03-23T05:16:20.077Z,12.2
2023-03-23T05:19:20.296Z,12.3
2023-03-23T05:22:20.064Z,12.2
2023-03-23T05:25:20.079Z,12.2
2023-03-23T05:28:20.083Z,12.2
2023-03-23T05:31:20.072Z,12.2
2023-03-23T05:34:20.083Z,12.3
2023-03-23T05:37:20.070Z,12.3
2023-03-23T05:40:20.082Z,12.3
2023-03-23T05:43:20.057Z,12.2
2023-03-23T05:46:20.058Z,12.2
2023-03-23T05:49:20.065Z,12.2
2023-03-23T05:52:20.054Z,12.2
2023-03-23T05:55:20.066Z,12.2
2023-03-23T05:58:20.070Z,12.2
2023-03-23T06:01:20.059Z,12.2
2023-03-23T06:04:20.076Z,12.2
2023-03-23T06:07:20.069Z,12.2
2023-03-23T06:10:20.090Z,12.2
2023-03-23T06:13:20.058Z,12.2
2023-03-23T06:16:20.063Z,12.2
2023-03-23T06:19:20.058Z,12.3
2023-03-23T06:22:20.060Z,12.3
2023-03-23T06:25:20.063Z,12.3
2023-03-23T06:28:20.060Z,12.3
2023-03-23T06:31:20.048Z,12.3
2023-03-23T06:34:20.056Z,12.3
2023-03-23T06:37:20.066Z,12.3
2023-03-23T06:40:20.071Z,12.3
2023-03-23T06:43:20.074Z,12.3
2023-03-23T06:46:20.059Z,12.3
2023-03-23T06:49:21.154Z,12.3
2023-03-23T06:52:20.054Z,12.3
2023-03-23T06:55:20.078Z,12.3
2023-03-23T06:58:20.058Z,12.3
2023-03-23T07:01:20.054Z,12.4
2023-03-23T07:04:20.106Z,12.4
2023-03-23T07:10:20.055Z,12.4
2023-03-23T07:13:20.053Z,12.4
2023-03-23T07:16:20.210Z,12.4
2023-03-23T07:19:20.044Z,12.4
2023-03-23T07:22:20.051Z,12.4
2023-03-23T07:25:20.071Z,12.4
2023-03-23T07:28:20.061Z,12.4
2023-03-23T07:31:20.043Z,12.4
2023-03-23T07:34:20.045Z,12.4
2023-03-23T07:37:20.044Z,12.4
2023-03-23T07:40:20.065Z,12.4
2023-03-23T07:43:20.037Z,12.4
2023-03-23T07:46:20.047Z,12.4
2023-03-23T07:49:20.057Z,12.4
2023-03-23T07:52:20.048Z,12.4
2023-03-23T07:55:20.039Z,12.4
2023-03-23T07:58:20.032Z,12.4
2023-03-23T08:01:20.039Z,12.4
2023-03-23T08:04:20.043Z,12.4
2023-03-23T08:07:20.127Z,12.4
2023-03-23T08:10:20.038Z,12.5
2023-03-23T08:13:20.060Z,12.5
2023-03-23T08:16:20.030Z,12.5
2023-03-23T08:19:20.067Z,12.5
2023-03-23T08:22:20.072Z,12.5
2023-03-23T08:25:20.054Z,12.5
2023-03-23T08:28:20.056Z,12.5
2023-03-23T08:34:20.061Z,12.5
2023-03-23T08:37:20.039Z,12.6
2023-03-23T08:40:20.108Z,12.6
2023-03-23T08:43:20.052Z,12.6
2023-03-23T08:46:20.049Z,12.6
2023-03-23T08:49:20.059Z,12.6
2023-03-23T08:52:20.041Z,12.6
2023-03-23T08:55:21.335Z,12.6
2023-03-23T08:58:20.052Z,12.7
2023-03-23T09:01:20.047Z,12.7
2023-03-23T09:04:20.037Z,12.7
2023-03-23T09:07:20.128Z,12.7
2023-03-23T09:10:20.073Z,12.7
2023-03-23T09:13:20.065Z,12.8
2023-03-23T09:16:20.076Z,12.8
2023-03-23T09:19:20.072Z,12.8
2023-03-23T09:22:20.060Z,12.9
2023-03-23T09:25:20.088Z,12.9
2023-03-23T09:28:20.070Z,12.9
2023-03-23T09:31:20.898Z,13
2023-03-23T09:37:20.053Z,13.1
2023-03-23T09:40:20.078Z,13.2
2023-03-23T09:43:20.063Z,13.2
2023-03-23T09:46:20.056Z,13.3
2023-03-23T09:49:20.061Z,13.4
2023-03-23T09:52:20.057Z,13.5
2023-03-23T09:55:20.072Z,13.6
2023-03-23T09:58:20.070Z,13.7
2023-03-23T10:01:20.057Z,13.8
2023-03-23T10:04:20.064Z,13.9
2023-03-23T10:10:20.052Z,14.1
2023-03-23T10:13:20.054Z,14.1
2023-03-23T10:16:20.050Z,14.2
2023-03-23T10:19:20.042Z,14.2
2023-03-23T10:22:20.082Z,14.2
2023-03-23T10:25:20.054Z,14.2
2023-03-23T10:28:20.046Z,14.2
2023-03-23T10:31:20.048Z,14.2
2023-03-23T10:34:20.041Z,14.1
2023-03-23T10:37:20.038Z,14.1
2023-03-23T10:40:22.055Z,14.1
2023-03-23T10:43:20.064Z,14.1
2023-03-23T10:46:29.868Z,14.1
2023-03-23T10:49:20.039Z,14.1
2023-03-23T10:52:20.035Z,14.1
2023-03-23T10:55:20.110Z,14.2
2023-03-23T10:58:20.219Z,14.2
2023-03-23T11:01:20.035Z,14.2
2023-03-23T11:04:20.031Z,14.2
2023-03-23T11:07:20.051Z,14.2
2023-03-23T11:10:20.053Z,14.2
2023-03-23T11:13:20.035Z,14.2
2023-03-23T11:16:20.049Z,14.1
2023-03-23T11:19:20.033Z,14.1
2023-03-23T11:22:20.035Z,14.1
2023-03-23T11:28:20.026Z,14
2023-03-23T11:31:20.044Z,14
2023-03-23T11:34:20.040Z,14.1
2023-03-23T11:37:20.024Z,14.1
2023-03-23T11:40:20.049Z,14.2
2023-03-23T11:43:20.038Z,14.2
2023-03-23T11:46:20.043Z,14.3
2023-03-23T11:49:25.489Z,14.4
2023-03-23T11:52:20.051Z,14.5
2023-03-23T11:58:20.030Z,14.6
2023-03-23T12:01:20.365Z,14.6
2023-03-23T12:04:20.050Z,14.6
2023-03-23T12:07:20.025Z,14.6
2023-03-23T12:16:20.020Z,14.8
2023-03-23T12:19:20.041Z,14.9
2023-03-23T12:22:20.014Z,14.9
2023-03-23T12:25:20.022Z,14.9
2023-03-23T12:28:20.010Z,14.8
2023-03-23T12:31:20.012Z,14.8
2023-03-23T12:34:20.021Z,14.8
2023-03-23T12:37:20.030Z,14.8
2023-03-23T12:40:20.020Z,14.8
2023-03-23T12:43:20.011Z,14.9
2023-03-23T12:46:20.009Z,14.9
2023-03-23T12:49:20.009Z,14.9
2023-03-23T12:52:20.022Z,15
2023-03-23T12:55:20.008Z,15
2023-03-23T12:58:20.025Z,15
2023-03-23T13:01:19.998Z,15
2023-03-23T13:04:20.021Z,15
2023-03-23T13:07:20.014Z,15
2023-03-23T13:10:20.023Z,15
2023-03-23T13:13:21.112Z,15
2023-03-23T13:16:20.017Z,15
2023-03-23T13:19:20.020Z,15
2023-03-23T13:22:20.007Z,15
2023-03-23T13:25:20.028Z,15
2023-03-23T13:28:20.016Z,15
2023-03-23T13:31:20.030Z,15.1
2023-03-23T13:34:20.015Z,15.1
2023-03-23T13:37:20.017Z,15.2
2023-03-23T13:40:20.010Z,15.2
2023-03-23T13:43:20.010Z,15.2
2023-03-23T13:46:20.012Z,15.2
2023-03-23T13:49:20.054Z,15.2
2023-03-23T13:52:20.009Z,15.2
2023-03-23T13:55:20.208Z,15.2
2023-03-23T13:58:20.016Z,15.1
2023-03-23T14:01:20.027Z,15.1
2023-03-23T14:04:20.022Z,15.1
2023-03-23T14:07:20.042Z,15
2023-03-23T14:10:20.011Z,14.9
2023-03-23T14:13:20.029Z,14.9
2023-03-23T14:16:20.023Z,14.8
2023-03-23T14:19:20.024Z,14.8
2023-03-23T14:22:20.031Z,14.7
2023-03-23T14:25:20.051Z,14.7
2023-03-23T14:28:20.033Z,14.6
2023-03-23T14:31:20.029Z,14.6
2023-03-23T14:34:20.027Z,14.6
2023-03-23T14:37:20.029Z,14.6
2023-03-23T14:40:20.016Z,14.6
2023-03-23T14:43:20.024Z,14.6
2023-03-23T14:46:20.016Z,14.6
2023-03-23T14:49:20.011Z,14.6
2023-03-23T14:52:20.029Z,14.6
2023-03-23T14:55:20.020Z,14.6
2023-03-23T14:58:20.013Z,14.6
2023-03-23T15:01:20.020Z,14.5
2023-03-23T15:04:20.004Z,14.5
2023-03-23T15:07:20.017Z,14.6
2023-03-23T15:13:20.013Z,14.6
2023-03-23T15:16:19.998Z,14.6
2023-03-23T15:19:19.998Z,14.6
2023-03-23T15:22:20.003Z,14.6
2023-03-23T15:25:20.012Z,14.6
2023-03-23T15:28:20.012Z,14.6
2023-03-23T15:34:20.007Z,14.6
2023-03-23T15:40:20.005Z,14.6
2023-03-23T15:43:20.019Z,14.6
2023-03-23T15:46:20.010Z,14.6
2023-03-23T15:49:20.006Z,14.6
2023-03-23T15:52:20.010Z,14.6
2023-03-23T15:55:20.004Z,14.5
2023-03-23T15:58:20.002Z,14.5
2023-03-23T16:01:20.032Z,14.5
2023-03-23T16:04:20.048Z,14.5
2023-03-23T16:07:20.000Z,14.5
2023-03-23T16:10:20.005Z,14.4
2023-03-23T16:13:19.995Z,14.4
2023-03-23T16:16:20.017Z,14.4
2023-03-23T16:19:19.992Z,14.4
2023-03-23T16:22:19.992Z,14.3
2023-03-23T16:25:20.000Z,14.3
2023-03-23T16:28:19.993Z,14.3
2023-03-23T16:31:20.042Z,14.3
2023-03-23T16:34:19.989Z,14.2
2023-03-23T16:37:19.992Z,14.2
2023-03-23T16:40:19.979Z,14.1
2023-03-23T16:43:19.985Z,14.1
2023-03-23T16:46:20.032Z,14
2023-03-23T16:49:19.979Z,14
2023-03-23T16:52:19.983Z,13.9
2023-03-23T16:55:19.976Z,13.9
2023-03-23T16:58:19.990Z,13.9
2023-03-23T17:01:20.044Z,13.8
2023-03-23T17:04:19.988Z,13.7
2023-03-23T17:07:19.989Z,13.7
2023-03-23T17:10:19.990Z,13.7
2023-03-23T17:13:19.971Z,13.7
2023-03-23T17:16:19.998Z,13.6
2023-03-23T17:19:19.985Z,13.6
2023-03-23T17:22:19.973Z,13.6
2023-03-23T17:25:19.964Z,13.5
2023-03-23T17:31:19.982Z,13.5
2023-03-23T17:34:19.976Z,13.5
2023-03-23T17:37:19.980Z,13.5
2023-03-23T17:40:19.965Z,13.4
2023-03-23T17:43:19.966Z,13.4
2023-03-23T17:46:19.994Z,13.4
2023-03-23T17:49:19.979Z,13.4
2023-03-23T17:52:19.960Z,13.4
2023-03-23T17:55:19.968Z,13.4
2023-03-23T17:58:19.960Z,13.3
2023-03-23T18:01:19.976Z,13.3
2023-03-23T18:04:19.953Z,13.3
2023-03-23T18:07:19.954Z,13.3
2023-03-23T18:10:19.953Z,13.3
2023-03-23T18:13:19.961Z,13.3
2023-03-23T18:16:19.973Z,13.3
2023-03-23T18:19:19.955Z,13.3
2023-03-23T18:22:19.994Z,13.3
2023-03-23T18:25:19.953Z,13.2
2023-03-23T18:28:19.952Z,13.2
2023-03-23T18:31:19.980Z,13.2
2023-03-23T18:34:19.950Z,13.2
2023-03-23T18:37:19.948Z,13.2
2023-03-23T18:40:20.014Z,13.2
2023-03-23T18:43:19.949Z,13.1
2023-03-23T18:46:19.964Z,13.1
2023-03-23T18:49:19.936Z,13.1
2023-03-23T18:52:19.974Z,13.1
2023-03-23T18:55:20.943Z,13.1
2023-03-23T18:58:19.946Z,13.1
2023-03-23T19:01:19.980Z,13.1
2023-03-23T19:04:19.976Z,13.1
2023-03-23T19:07:20.053Z,13.1
2023-03-23T19:10:19.930Z,13.1
2023-03-23T19:13:19.958Z,13.1
2023-03-23T19:16:19.956Z,13
2023-03-23T19:19:19.950Z,13
2023-03-23T19:22:19.941Z,13
2023-03-23T19:31:19.969Z,13.1
2023-03-23T19:34:19.946Z,13.1
2023-03-23T19:37:19.994Z,13.1
2023-03-23T19:40:36.476Z,13.1
2023-03-23T19:43:19.926Z,13.1
2023-03-23T19:46:20.241Z,13.1
2023-03-23T19:49:20.108Z,13.1
2023-03-23T19:55:19.929Z,13.1
2023-03-23T19:58:20.467Z,13.1
2023-03-23T20:01:20.041Z,13.1
2023-03-23T20:04:19.918Z,13.1
2023-03-23T20:07:21.274Z,13.1
2023-03-23T20:10:19.935Z,13.1
2023-03-23T20:13:19.949Z,13.1
2023-03-23T20:16:19.933Z,13.1
2023-03-23T20:19:19.928Z,13.1
2023-03-23T20:25:19.968Z,13.2
2023-03-23T20:28:19.919Z,13.2
2023-03-23T20:31:23.724Z,13.2
2023-03-23T20:34:19.921Z,13.2
2023-03-23T20:37:19.921Z,13.2
2023-03-23T20:40:19.913Z,13.2
2023-03-23T20:43:19.925Z,13.2
2023-03-23T20:46:19.937Z,13.2
2023-03-23T20:49:19.912Z,13.2
2023-03-23T20:52:19.932Z,13.2
2023-03-23T20:55:19.920Z,13.2
2023-03-23T20:58:19.913Z,13.1
2023-03-23T21:01:19.917Z,13.1
2023-03-23T21:04:19.928Z,13.1
2023-03-23T21:07:19.924Z,13.1
2023-03-23T21:10:19.912Z,13.1
2023-03-23T21:13:19.912Z,13.1
2023-03-23T21:16:19.934Z,13
2023-03-23T21:19:20.412Z,13
2023-03-23T21:22:19.903Z,13
2023-03-23T21:25:19.922Z,13
2023-03-23T21:28:19.908Z,13
2023-03-23T21:31:19.929Z,13
2023-03-23T21:34:19.892Z,13
2023-03-23T21:37:19.890Z,13
2023-03-23T21:40:19.932Z,13
2023-03-23T21:43:19.903Z,13
2023-03-23T21:46:19.909Z,13
2023-03-23T21:49:19.889Z,13
2023-03-23T21:52:19.904Z,13
2023-03-23T21:55:19.898Z,13
2023-03-23T21:58:19.903Z,13
2023-03-23T22:01:19.913Z,13
2023-03-23T22:04:19.904Z,13
2023-03-23T22:07:19.900Z,13
2023-03-23T22:10:19.930Z,13
2023-03-23T22:13:19.903Z,12.9
2023-03-23T22:16:19.971Z,12.9
2023-03-23T22:19:19.938Z,12.9
2023-03-23T22:22:19.924Z,12.9
2023-03-23T22:25:19.892Z,12.9
2023-03-23T22:28:19.891Z,12.9
2023-03-23T22:31:19.931Z,12.9
2023-03-23T22:34:19.896Z,12.9
2023-03-23T22:37:19.901Z,12.9
2023-03-23T22:40:19.939Z,12.9
2023-03-23T22:43:19.918Z,12.9
2023-03-23T22:46:19.949Z,12.9
2023-03-23T22:49:19.889Z,12.9
2023-03-23T22:52:19.911Z,12.9
2023-03-23T22:55:19.902Z,13
2023-03-23T22:58:19.892Z,13
2023-03-23T23:01:19.917Z,13
2023-03-23T23:04:19.939Z,13
2023-03-23T23:07:19.892Z,13
2023-03-23T23:10:19.892Z,13
2023-03-23T23:13:19.910Z,13
2023-03-23T23:16:19.941Z,13
2023-03-23T23:19:19.903Z,13
2023-03-23T23:22:19.899Z,12.9
2023-03-23T23:25:19.892Z,12.9
2023-03-23T23:31:19.925Z,12.9
2023-03-23T23:34:19.893Z,12.9
2023-03-23T23:37:20.020Z,12.8
2023-03-23T23:40:19.894Z,12.8
2023-03-23T23:43:19.889Z,12.8
2023-03-23T23:46:19.952Z,12.8
2023-03-23T23:49:19.876Z,12.8
2023-03-23T23:52:19.880Z,12.7
2023-03-23T23:55:19.881Z,12.7
2023-03-23T23:58:19.873Z,12.7
